sensor_id;sensor_type;location;lat;lon;timestamp;temperature;humidity
21298;DHT22;10808;48.010;11.326;2023-05-16T00:00:30;12.00;99.90
21298;DHT22;10808;48.010;11.326;2023-05-16T00:03:04;11.90;99.90
21298;DHT22;10808;48.010;11.326;2023-05-16T00:05:30;11.90;99.90
21298;DHT22;10808;48.010;11.326;2023-05-16T00:07:56;12.00;99.90
21298;DHT22;10808;48.010;11.326;2023-05-16T00:10:22;12.00;99.90
21298;DHT22;10808;48.010;11.326;2023-05-16T00:12:48;12.00;99.90
21298;DHT22;10808;48.010;11.326;2023-05-16T00:15:17;12.00;99.90
21298;DHT22;10808;48.010;11.326;2023-05-16T00:17:45;12.00;99.90
21298;DHT22;10808;48.010;11.326;2023-05-16T00:20:15;12.00;99.90
21298;DHT22;10808;48.010;11.326;2023-05-16T00:22:43;12.00;99.90
21298;DHT22;10808;48.010;11.326;2023-05-16T00:25:10;11.90;99.90
21298;DHT22;10808;48.010;11.326;2023-05-16T00:27:37;11.90;99.90
21298;DHT22;10808;48.010;11.326;2023-05-16T00:30:03;11.90;99.90
21298;DHT22;10808;48.010;11.326;2023-05-16T00:32:30;11.90;99.90
21298;DHT22;10808;48.010;11.326;2023-05-16T00:34:56;11.90;99.90
21298;DHT22;10808;48.010;11.326;2023-05-16T00:37:22;11.90;99.90
21298;DHT22;10808;48.010;11.326;2023-05-16T00:39:48;11.80;99.90
21298;DHT22;10808;48.010;11.326;2023-05-16T00:42:14;11.90;99.90
21298;DHT22;10808;48.010;11.326;2023-05-16T00:44:40;11.80;99.90
21298;DHT22;10808;48.010;11.326;2023-05-16T00:47:06;11.80;99.90
21298;DHT22;10808;48.010;11.326;2023-05-16T00:49:33;11.80;99.90
21298;DHT22;10808;48.010;11.326;2023-05-16T00:51:59;11.80;99.90
21298;DHT22;10808;48.010;11.326;2023-05-16T00:54:26;11.80;99.90
21298;DHT22;10808;48.010;11.326;2023-05-16T00:56:54;11.90;99.90
21298;DHT22;10808;48.010;11.326;2023-05-16T00:59:22;11.80;99.90
21298;DHT22;10808;48.010;11.326;2023-05-16T01:01:49;11.90;99.90
21298;DHT22;10808;48.010;11.326;2023-05-16T01:04:17;11.80;99.90
21298;DHT22;10808;48.010;11.326;2023-05-16T01:06:43;11.80;99.90
21298;DHT22;10808;48.010;11.326;2023-05-16T01:09:10;11.80;99.90
21298;DHT22;10808;48.010;11.326;2023-05-16T01:12:01;11.80;99.90
21298;DHT22;10808;48.010;11.326;2023-05-16T01:14:55;11.80;99.90
21298;DHT22;10808;48.010;11.326;2023-05-16T01:17:35;11.80;99.90
21298;DHT22;10808;48.010;11.326;2023-05-16T01:20:18;11.80;99.90
21298;DHT22;10808;48.010;11.326;2023-05-16T01:28:06;11.80;99.90
21298;DHT22;10808;48.010;11.326;2023-05-16T01:30:34;11.80;99.90
21298;DHT22;10808;48.010;11.326;2023-05-16T01:33:00;11.80;99.90
21298;DHT22;10808;48.010;11.326;2023-05-16T01:35:27;11.80;99.90
21298;DHT22;10808;48.010;11.326;2023-05-16T01:38:12;11.80;99.90
21298;DHT22;10808;48.010;11.326;2023-05-16T01:41:03;11.70;99.90
21298;DHT22;10808;48.010;11.326;2023-05-16T01:43:36;11.80;99.90
21298;DHT22;10808;48.010;11.326;2023-05-16T01:46:09;11.80;99.90
21298;DHT22;10808;48.010;11.326;2023-05-16T01:48:49;11.80;99.90
21298;DHT22;10808;48.010;11.326;2023-05-16T01:51:17;11.80;99.90
21298;DHT22;10808;48.010;11.326;2023-05-16T01:53:46;11.80;99.90
21298;DHT22;10808;48.010;11.326;2023-05-16T01:56:16;11.80;99.90
21298;DHT22;10808;48.010;11.326;2023-05-16T01:58:43;11.80;99.90
21298;DHT22;10808;48.010;11.326;2023-05-16T02:01:12;11.70;99.90
21298;DHT22;10808;48.010;11.326;2023-05-16T02:03:38;11.70;99.90
21298;DHT22;10808;48.010;11.326;2023-05-16T02:06:04;11.70;99.90
21298;DHT22;10808;48.010;11.326;2023-05-16T02:08:30;11.70;99.90
21298;DHT22;10808;48.010;11.326;2023-05-16T02:10:56;11.70;99.90
21298;DHT22;10808;48.010;11.326;2023-05-16T02:13:22;11.60;99.90
21298;DHT22;10808;48.010;11.326;2023-05-16T02:15:49;11.60;99.90
21298;DHT22;10808;48.010;11.326;2023-05-16T02:18:15;11.60;99.90
21298;DHT22;10808;48.010;11.326;2023-05-16T02:20:41;11.60;99.90
21298;DHT22;10808;48.010;11.326;2023-05-16T02:23:07;11.70;99.90
21298;DHT22;10808;48.010;11.326;2023-05-16T02:25:33;11.70;99.90
21298;DHT22;10808;48.010;11.326;2023-05-16T02:27:59;11.70;99.90
21298;DHT22;10808;48.010;11.326;2023-05-16T02:30:25;11.70;99.90
21298;DHT22;10808;48.010;11.326;2023-05-16T02:32:51;11.70;99.90
21298;DHT22;10808;48.010;11.326;2023-05-16T02:35:18;11.70;99.90
21298;DHT22;10808;48.010;11.326;2023-05-16T02:37:44;11.70;99.90
21298;DHT22;10808;48.010;11.326;2023-05-16T02:40:11;11.70;99.90
21298;DHT22;10808;48.010;11.326;2023-05-16T02:42:37;11.70;99.90
21298;DHT22;10808;48.010;11.326;2023-05-16T02:45:04;11.60;99.90
21298;DHT22;10808;48.010;11.326;2023-05-16T02:47:30;11.60;99.90
21298;DHT22;10808;48.010;11.326;2023-05-16T02:49:56;11.60;99.90
21298;DHT22;10808;48.010;11.326;2023-05-16T02:52:22;11.60;99.90
21298;DHT22;10808;48.010;11.326;2023-05-16T02:54:48;11.60;99.90
21298;DHT22;10808;48.010;11.326;2023-05-16T02:57:14;11.60;99.90
21298;DHT22;10808;48.010;11.326;2023-05-16T02:59:40;11.60;99.90
21298;DHT22;10808;48.010;11.326;2023-05-16T03:02:06;11.60;99.90
21298;DHT22;10808;48.010;11.326;2023-05-16T03:04:33;11.60;99.90
21298;DHT22;10808;48.010;11.326;2023-05-16T03:06:59;11.60;99.90
21298;DHT22;10808;48.010;11.326;2023-05-16T03:09:25;11.60;99.90
21298;DHT22;10808;48.010;11.326;2023-05-16T03:11:51;11.50;99.90
21298;DHT22;10808;48.010;11.326;2023-05-16T03:14:17;11.50;99.90
21298;DHT22;10808;48.010;11.326;2023-05-16T03:16:43;11.50;99.90
21298;DHT22;10808;48.010;11.326;2023-05-16T03:19:09;11.50;99.90
21298;DHT22;10808;48.010;11.326;2023-05-16T03:21:36;11.50;99.90
21298;DHT22;10808;48.010;11.326;2023-05-16T03:24:02;11.50;99.90
21298;DHT22;10808;48.010;11.326;2023-05-16T03:26:28;11.50;99.90
21298;DHT22;10808;48.010;11.326;2023-05-16T03:28:54;11.50;99.90
21298;DHT22;10808;48.010;11.326;2023-05-16T03:31:21;11.50;99.90
21298;DHT22;10808;48.010;11.326;2023-05-16T03:33:47;11.50;99.90
21298;DHT22;10808;48.010;11.326;2023-05-16T03:36:13;11.50;99.90
21298;DHT22;10808;48.010;11.326;2023-05-16T03:38:39;11.50;99.90
21298;DHT22;10808;48.010;11.326;2023-05-16T03:41:05;11.50;99.90
21298;DHT22;10808;48.010;11.326;2023-05-16T03:43:31;11.50;99.90
21298;DHT22;10808;48.010;11.326;2023-05-16T03:45:57;11.50;99.90
21298;DHT22;10808;48.010;11.326;2023-05-16T03:48:25;11.50;99.90
21298;DHT22;10808;48.010;11.326;2023-05-16T03:50:51;11.50;99.90
21298;DHT22;10808;48.010;11.326;2023-05-16T03:53:17;11.50;99.90
21298;DHT22;10808;48.010;11.326;2023-05-16T03:55:43;11.60;99.90
21298;DHT22;10808;48.010;11.326;2023-05-16T03:58:09;11.50;99.90
21298;DHT22;10808;48.010;11.326;2023-05-16T04:00:36;11.50;99.90
21298;DHT22;10808;48.010;11.326;2023-05-16T04:03:02;11.50;99.90
21298;DHT22;10808;48.010;11.326;2023-05-16T04:05:28;11.40;99.90
21298;DHT22;10808;48.010;11.326;2023-05-16T04:07:55;11.40;99.90
21298;DHT22;10808;48.010;11.326;2023-05-16T04:10:21;11.40;99.90
21298;DHT22;10808;48.010;11.326;2023-05-16T04:12:47;11.40;99.90
21298;DHT22;10808;48.010;11.326;2023-05-16T04:15:13;11.40;99.90
21298;DHT22;10808;48.010;11.326;2023-05-16T04:17:39;11.40;99.90
21298;DHT22;10808;48.010;11.326;2023-05-16T04:20:06;11.30;99.90
21298;DHT22;10808;48.010;11.326;2023-05-16T04:22:32;11.30;99.90
21298;DHT22;10808;48.010;11.326;2023-05-16T04:24:58;11.30;99.90
21298;DHT22;10808;48.010;11.326;2023-05-16T04:27:24;11.30;99.90
21298;DHT22;10808;48.010;11.326;2023-05-16T04:29:51;11.30;99.90
21298;DHT22;10808;48.010;11.326;2023-05-16T04:32:17;11.30;99.90
21298;DHT22;10808;48.010;11.326;2023-05-16T04:34:44;11.30;99.90
21298;DHT22;10808;48.010;11.326;2023-05-16T04:37:11;11.40;99.90
21298;DHT22;10808;48.010;11.326;2023-05-16T04:39:37;11.40;99.90
21298;DHT22;10808;48.010;11.326;2023-05-16T04:42:04;11.40;99.90
21298;DHT22;10808;48.010;11.326;2023-05-16T04:44:30;11.40;99.90
21298;DHT22;10808;48.010;11.326;2023-05-16T04:46:56;11.30;99.90
21298;DHT22;10808;48.010;11.326;2023-05-16T04:49:22;11.30;99.90
21298;DHT22;10808;48.010;11.326;2023-05-16T04:51:48;11.30;99.90
21298;DHT22;10808;48.010;11.326;2023-05-16T04:54:14;11.30;99.90
21298;DHT22;10808;48.010;11.326;2023-05-16T04:56:40;11.20;99.90
21298;DHT22;10808;48.010;11.326;2023-05-16T04:59:07;11.30;99.90
21298;DHT22;10808;48.010;11.326;2023-05-16T05:01:33;11.30;99.90
21298;DHT22;10808;48.010;11.326;2023-05-16T05:03:59;11.30;99.90
21298;DHT22;10808;48.010;11.326;2023-05-16T05:06:25;11.30;99.90
21298;DHT22;10808;48.010;11.326;2023-05-16T05:08:51;11.20;99.90
21298;DHT22;10808;48.010;11.326;2023-05-16T05:11:17;11.20;99.90
21298;DHT22;10808;48.010;11.326;2023-05-16T05:13:44;11.30;99.90
21298;DHT22;10808;48.010;11.326;2023-05-16T05:16:10;11.30;99.90
21298;DHT22;10808;48.010;11.326;2023-05-16T05:18:36;11.30;99.90
21298;DHT22;10808;48.010;11.326;2023-05-16T05:21:02;11.40;99.90
21298;DHT22;10808;48.010;11.326;2023-05-16T05:23:28;11.50;99.90
21298;DHT22;10808;48.010;11.326;2023-05-16T05:25:55;11.50;99.90
21298;DHT22;10808;48.010;11.326;2023-05-16T05:28:21;11.50;99.90
21298;DHT22;10808;48.010;11.326;2023-05-16T05:30:47;11.40;99.90
21298;DHT22;10808;48.010;11.326;2023-05-16T05:33:16;11.50;99.90
21298;DHT22;10808;48.010;11.326;2023-05-16T05:35:43;11.60;99.90
21298;DHT22;10808;48.010;11.326;2023-05-16T05:38:09;11.60;99.90
21298;DHT22;10808;48.010;11.326;2023-05-16T05:40:35;11.60;99.90
21298;DHT22;10808;48.010;11.326;2023-05-16T05:43:01;11.60;99.90
21298;DHT22;10808;48.010;11.326;2023-05-16T05:45:27;11.60;99.90
21298;DHT22;10808;48.010;11.326;2023-05-16T05:47:53;11.60;99.90
21298;DHT22;10808;48.010;11.326;2023-05-16T05:50:19;11.50;99.90
21298;DHT22;10808;48.010;11.326;2023-05-16T05:52:45;11.60;99.90
21298;DHT22;10808;48.010;11.326;2023-05-16T05:55:11;11.60;99.90
21298;DHT22;10808;48.010;11.326;2023-05-16T05:57:38;11.60;99.90
21298;DHT22;10808;48.010;11.326;2023-05-16T06:00:04;11.60;99.90
21298;DHT22;10808;48.010;11.326;2023-05-16T06:02:31;11.60;99.90
21298;DHT22;10808;48.010;11.326;2023-05-16T06:04:58;11.60;99.90
21298;DHT22;10808;48.010;11.326;2023-05-16T06:07:24;11.60;99.90
21298;DHT22;10808;48.010;11.326;2023-05-16T06:09:50;11.60;99.90
21298;DHT22;10808;48.010;11.326;2023-05-16T06:12:16;11.70;99.90
21298;DHT22;10808;48.010;11.326;2023-05-16T06:14:42;11.70;99.90
21298;DHT22;10808;48.010;11.326;2023-05-16T06:17:08;11.80;99.90
21298;DHT22;10808;48.010;11.326;2023-05-16T06:19:35;11.80;99.90
21298;DHT22;10808;48.010;11.326;2023-05-16T06:22:01;11.70;99.90
21298;DHT22;10808;48.010;11.326;2023-05-16T06:24:27;11.70;99.90
21298;DHT22;10808;48.010;11.326;2023-05-16T06:26:54;11.80;99.90
21298;DHT22;10808;48.010;11.326;2023-05-16T06:29:20;11.80;99.90
21298;DHT22;10808;48.010;11.326;2023-05-16T06:31:47;11.90;99.90
21298;DHT22;10808;48.010;11.326;2023-05-16T06:34:13;11.80;99.90
21298;DHT22;10808;48.010;11.326;2023-05-16T06:36:39;11.90;99.90
21298;DHT22;10808;48.010;11.326;2023-05-16T06:39:05;11.90;99.90
21298;DHT22;10808;48.010;11.326;2023-05-16T06:41:31;11.90;99.90
21298;DHT22;10808;48.010;11.326;2023-05-16T06:43:57;11.90;99.90
21298;DHT22;10808;48.010;11.326;2023-05-16T06:46:23;11.90;99.90
21298;DHT22;10808;48.010;11.326;2023-05-16T06:48:49;12.00;99.90
21298;DHT22;10808;48.010;11.326;2023-05-16T06:51:15;12.00;99.90
21298;DHT22;10808;48.010;11.326;2023-05-16T06:53:41;12.00;99.90
21298;DHT22;10808;48.010;11.326;2023-05-16T06:56:08;12.10;99.90
21298;DHT22;10808;48.010;11.326;2023-05-16T06:58:34;12.10;99.90
21298;DHT22;10808;48.010;11.326;2023-05-16T07:01:00;12.10;99.90
21298;DHT22;10808;48.010;11.326;2023-05-16T07:03:27;12.20;99.90
21298;DHT22;10808;48.010;11.326;2023-05-16T07:05:53;12.20;99.90
21298;DHT22;10808;48.010;11.326;2023-05-16T07:08:19;12.40;99.90
21298;DHT22;10808;48.010;11.326;2023-05-16T07:10:45;12.50;99.90
21298;DHT22;10808;48.010;11.326;2023-05-16T07:13:11;12.60;99.90
21298;DHT22;10808;48.010;11.326;2023-05-16T07:15:37;12.60;99.90
21298;DHT22;10808;48.010;11.326;2023-05-16T07:18:03;12.60;99.90
21298;DHT22;10808;48.010;11.326;2023-05-16T07:20:29;12.70;99.90
21298;DHT22;10808;48.010;11.326;2023-05-16T07:22:55;12.80;99.90
21298;DHT22;10808;48.010;11.326;2023-05-16T07:25:23;12.80;99.90
21298;DHT22;10808;48.010;11.326;2023-05-16T07:27:49;12.90;99.90
21298;DHT22;10808;48.010;11.326;2023-05-16T07:30:15;12.90;99.90
21298;DHT22;10808;48.010;11.326;2023-05-16T07:32:41;12.90;99.90
21298;DHT22;10808;48.010;11.326;2023-05-16T07:35:08;13.00;99.90
21298;DHT22;10808;48.010;11.326;2023-05-16T07:37:34;13.10;99.90
21298;DHT22;10808;48.010;11.326;2023-05-16T07:40:01;13.20;99.90
21298;DHT22;10808;48.010;11.326;2023-05-16T07:42:30;13.30;99.90
21298;DHT22;10808;48.010;11.326;2023-05-16T07:44:56;13.40;99.90
21298;DHT22;10808;48.010;11.326;2023-05-16T07:47:22;13.50;99.90
21298;DHT22;10808;48.010;11.326;2023-05-16T07:49:48;13.60;99.90
21298;DHT22;10808;48.010;11.326;2023-05-16T07:52:14;13.50;99.90
21298;DHT22;10808;48.010;11.326;2023-05-16T07:54:40;13.50;99.90
21298;DHT22;10808;48.010;11.326;2023-05-16T07:57:06;13.50;99.90
21298;DHT22;10808;48.010;11.326;2023-05-16T07:59:32;13.50;99.90
21298;DHT22;10808;48.010;11.326;2023-05-16T08:01:58;13.40;99.90
21298;DHT22;10808;48.010;11.326;2023-05-16T08:04:24;13.40;99.90
21298;DHT22;10808;48.010;11.326;2023-05-16T08:06:50;13.40;99.90
21298;DHT22;10808;48.010;11.326;2023-05-16T08:09:16;13.40;99.90
21298;DHT22;10808;48.010;11.326;2023-05-16T08:11:43;13.40;99.90
21298;DHT22;10808;48.010;11.326;2023-05-16T08:14:11;13.30;99.90
21298;DHT22;10808;48.010;11.326;2023-05-16T08:16:37;13.40;99.90
21298;DHT22;10808;48.010;11.326;2023-05-16T08:19:03;13.50;99.90
21298;DHT22;10808;48.010;11.326;2023-05-16T08:21:29;13.50;99.90
21298;DHT22;10808;48.010;11.326;2023-05-16T08:23:56;13.60;99.90
21298;DHT22;10808;48.010;11.326;2023-05-16T08:26:22;13.60;99.90
21298;DHT22;10808;48.010;11.326;2023-05-16T08:28:48;13.70;99.90
21298;DHT22;10808;48.010;11.326;2023-05-16T08:31:15;13.70;99.90
21298;DHT22;10808;48.010;11.326;2023-05-16T08:33:41;13.80;99.90
21298;DHT22;10808;48.010;11.326;2023-05-16T08:36:08;13.70;99.90
21298;DHT22;10808;48.010;11.326;2023-05-16T08:38:34;13.70;99.90
21298;DHT22;10808;48.010;11.326;2023-05-16T08:41:01;13.80;99.90
21298;DHT22;10808;48.010;11.326;2023-05-16T08:43:27;13.80;99.90
21298;DHT22;10808;48.010;11.326;2023-05-16T08:45:53;13.70;99.90
21298;DHT22;10808;48.010;11.326;2023-05-16T08:48:22;13.70;99.90
21298;DHT22;10808;48.010;11.326;2023-05-16T08:50:49;13.70;99.90
21298;DHT22;10808;48.010;11.326;2023-05-16T08:53:21;13.70;99.90
21298;DHT22;10808;48.010;11.326;2023-05-16T08:55:48;13.60;99.90
21298;DHT22;10808;48.010;11.326;2023-05-16T08:58:16;13.60;99.90
21298;DHT22;10808;48.010;11.326;2023-05-16T09:00:42;13.50;99.90
21298;DHT22;10808;48.010;11.326;2023-05-16T09:03:09;13.50;99.90
21298;DHT22;10808;48.010;11.326;2023-05-16T09:05:36;13.40;99.90
21298;DHT22;10808;48.010;11.326;2023-05-16T09:08:03;13.40;99.90
21298;DHT22;10808;48.010;11.326;2023-05-16T09:10:29;13.40;99.90
21298;DHT22;10808;48.010;11.326;2023-05-16T09:12:55;13.30;99.90
21298;DHT22;10808;48.010;11.326;2023-05-16T09:15:21;13.20;99.90
21298;DHT22;10808;48.010;11.326;2023-05-16T09:17:47;13.20;99.90
21298;DHT22;10808;48.010;11.326;2023-05-16T09:20:14;13.30;99.90
21298;DHT22;10808;48.010;11.326;2023-05-16T09:22:54;13.30;99.90
21298;DHT22;10808;48.010;11.326;2023-05-16T09:25:22;13.20;99.90
21298;DHT22;10808;48.010;11.326;2023-05-16T09:27:55;13.20;99.90
21298;DHT22;10808;48.010;11.326;2023-05-16T09:30:27;13.30;99.90
21298;DHT22;10808;48.010;11.326;2023-05-16T09:32:54;13.30;99.90
21298;DHT22;10808;48.010;11.326;2023-05-16T09:35:22;13.30;99.90
21298;DHT22;10808;48.010;11.326;2023-05-16T09:37:50;13.30;99.90
21298;DHT22;10808;48.010;11.326;2023-05-16T09:40:22;13.20;99.90
21298;DHT22;10808;48.010;11.326;2023-05-16T09:43:05;13.20;99.90
21298;DHT22;10808;48.010;11.326;2023-05-16T09:45:33;13.20;99.90
21298;DHT22;10808;48.010;11.326;2023-05-16T09:48:06;13.30;99.90
21298;DHT22;10808;48.010;11.326;2023-05-16T09:50:34;13.30;99.90
21298;DHT22;10808;48.010;11.326;2023-05-16T09:53:01;13.30;99.90
21298;DHT22;10808;48.010;11.326;2023-05-16T09:55:28;13.40;99.90
21298;DHT22;10808;48.010;11.326;2023-05-16T09:57:55;13.30;99.90
21298;DHT22;10808;48.010;11.326;2023-05-16T10:00:21;13.20;99.90
21298;DHT22;10808;48.010;11.326;2023-05-16T10:02:48;13.00;99.90
21298;DHT22;10808;48.010;11.326;2023-05-16T10:05:15;12.90;99.90
21298;DHT22;10808;48.010;11.326;2023-05-16T10:07:43;12.80;99.90
21298;DHT22;10808;48.010;11.326;2023-05-16T10:10:10;12.70;99.90
21298;DHT22;10808;48.010;11.326;2023-05-16T10:12:37;12.70;99.90
21298;DHT22;10808;48.010;11.326;2023-05-16T10:15:04;12.70;99.90
21298;DHT22;10808;48.010;11.326;2023-05-16T10:17:35;12.80;99.90
21298;DHT22;10808;48.010;11.326;2023-05-16T10:20:05;12.90;99.90
21298;DHT22;10808;48.010;11.326;2023-05-16T10:22:34;13.00;99.90
21298;DHT22;10808;48.010;11.326;2023-05-16T10:25:46;13.00;99.90
21298;DHT22;10808;48.010;11.326;2023-05-16T10:27:53;13.10;99.90
21298;DHT22;10808;48.010;11.326;2023-05-16T10:30:20;13.00;99.90
21298;DHT22;10808;48.010;11.326;2023-05-16T10:32:47;13.00;99.90
21298;DHT22;10808;48.010;11.326;2023-05-16T10:35:14;12.90;99.90
21298;DHT22;10808;48.010;11.326;2023-05-16T10:37:41;12.90;99.90
21298;DHT22;10808;48.010;11.326;2023-05-16T10:40:08;12.90;99.90
21298;DHT22;10808;48.010;11.326;2023-05-16T10:42:35;12.90;99.90
21298;DHT22;10808;48.010;11.326;2023-05-16T10:45:16;12.80;99.90
21298;DHT22;10808;48.010;11.326;2023-05-16T10:47:56;12.80;99.90
21298;DHT22;10808;48.010;11.326;2023-05-16T10:50:40;12.80;99.90
21298;DHT22;10808;48.010;11.326;2023-05-16T10:53:11;12.80;99.90
21298;DHT22;10808;48.010;11.326;2023-05-16T10:55:38;12.90;99.90
21298;DHT22;10808;48.010;11.326;2023-05-16T10:58:04;12.90;99.90
21298;DHT22;10808;48.010;11.326;2023-05-16T11:00:31;12.80;99.90
21298;DHT22;10808;48.010;11.326;2023-05-16T11:03:04;12.80;99.90
21298;DHT22;10808;48.010;11.326;2023-05-16T11:05:31;12.90;99.90
21298;DHT22;10808;48.010;11.326;2023-05-16T11:08:03;13.00;99.90
21298;DHT22;10808;48.010;11.326;2023-05-16T11:10:30;13.00;99.90
21298;DHT22;10808;48.010;11.326;2023-05-16T11:13:02;13.00;99.90
21298;DHT22;10808;48.010;11.326;2023-05-16T11:15:31;13.00;99.90
21298;DHT22;10808;48.010;11.326;2023-05-16T11:18:15;13.00;99.90
21298;DHT22;10808;48.010;11.326;2023-05-16T11:20:42;13.00;99.90
21298;DHT22;10808;48.010;11.326;2023-05-16T11:23:24;13.10;99.90
21298;DHT22;10808;48.010;11.326;2023-05-16T11:25:56;13.20;99.90
21298;DHT22;10808;48.010;11.326;2023-05-16T11:28:24;13.20;99.90
21298;DHT22;10808;48.010;11.326;2023-05-16T11:30:52;13.30;99.90
21298;DHT22;10808;48.010;11.326;2023-05-16T11:33:21;13.30;99.90
21298;DHT22;10808;48.010;11.326;2023-05-16T11:36:04;13.30;99.90
21298;DHT22;10808;48.010;11.326;2023-05-16T11:38:32;13.40;99.90
21298;DHT22;10808;48.010;11.326;2023-05-16T11:41:03;13.60;99.90
21298;DHT22;10808;48.010;11.326;2023-05-16T11:43:37;13.60;99.90
21298;DHT22;10808;48.010;11.326;2023-05-16T11:46:04;13.60;99.90
21298;DHT22;10808;48.010;11.326;2023-05-16T11:48:30;13.60;99.90
21298;DHT22;10808;48.010;11.326;2023-05-16T11:50:56;13.70;99.90
21298;DHT22;10808;48.010;11.326;2023-05-16T11:53:22;13.70;99.90
21298;DHT22;10808;48.010;11.326;2023-05-16T11:55:49;13.80;99.90
21298;DHT22;10808;48.010;11.326;2023-05-16T11:58:18;13.90;99.90
21298;DHT22;10808;48.010;11.326;2023-05-16T12:00:49;13.80;99.90
21298;DHT22;10808;48.010;11.326;2023-05-16T12:03:16;13.70;99.90
21298;DHT22;10808;48.010;11.326;2023-05-16T12:05:52;13.70;99.90
21298;DHT22;10808;48.010;11.326;2023-05-16T12:08:19;13.60;99.90
21298;DHT22;10808;48.010;11.326;2023-05-16T12:10:48;13.60;99.90
21298;DHT22;10808;48.010;11.326;2023-05-16T12:13:15;13.50;99.90
21298;DHT22;10808;48.010;11.326;2023-05-16T12:15:42;13.50;99.90
21298;DHT22;10808;48.010;11.326;2023-05-16T12:18:09;13.60;99.90
21298;DHT22;10808;48.010;11.326;2023-05-16T12:20:35;13.60;99.90
21298;DHT22;10808;48.010;11.326;2023-05-16T12:23:02;13.50;99.90
21298;DHT22;10808;48.010;11.326;2023-05-16T12:25:30;13.50;99.90
21298;DHT22;10808;48.010;11.326;2023-05-16T12:27:59;13.40;99.90
21298;DHT22;10808;48.010;11.326;2023-05-16T12:30:26;13.40;99.90
21298;DHT22;10808;48.010;11.326;2023-05-16T12:33:03;13.40;99.90
21298;DHT22;10808;48.010;11.326;2023-05-16T12:35:33;13.50;99.90
21298;DHT22;10808;48.010;11.326;2023-05-16T12:38:03;13.50;99.90
21298;DHT22;10808;48.010;11.326;2023-05-16T12:40:30;13.50;99.90
21298;DHT22;10808;48.010;11.326;2023-05-16T12:42:57;13.70;99.90
21298;DHT22;10808;48.010;11.326;2023-05-16T12:45:26;13.70;99.90
21298;DHT22;10808;48.010;11.326;2023-05-16T12:47:52;13.90;99.90
21298;DHT22;10808;48.010;11.326;2023-05-16T12:50:18;13.90;99.90
21298;DHT22;10808;48.010;11.326;2023-05-16T12:52:58;14.00;99.90
21298;DHT22;10808;48.010;11.326;2023-05-16T12:55:24;14.00;99.90
21298;DHT22;10808;48.010;11.326;2023-05-16T12:57:51;14.10;99.90
21298;DHT22;10808;48.010;11.326;2023-05-16T13:00:19;14.10;99.90
21298;DHT22;10808;48.010;11.326;2023-05-16T13:02:46;14.20;99.90
21298;DHT22;10808;48.010;11.326;2023-05-16T13:05:13;14.30;99.90
21298;DHT22;10808;48.010;11.326;2023-05-16T13:07:39;14.30;99.90
21298;DHT22;10808;48.010;11.326;2023-05-16T13:10:09;14.20;99.90
21298;DHT22;10808;48.010;11.326;2023-05-16T13:12:36;14.30;99.90
21298;DHT22;10808;48.010;11.326;2023-05-16T13:15:04;14.40;99.90
21298;DHT22;10808;48.010;11.326;2023-05-16T13:17:35;14.40;99.90
21298;DHT22;10808;48.010;11.326;2023-05-16T13:20:02;14.40;99.90
21298;DHT22;10808;48.010;11.326;2023-05-16T13:22:36;14.50;99.90
21298;DHT22;10808;48.010;11.326;2023-05-16T13:25:03;14.60;99.90
21298;DHT22;10808;48.010;11.326;2023-05-16T13:27:29;14.80;99.90
21298;DHT22;10808;48.010;11.326;2023-05-16T13:29:56;14.90;99.90
21298;DHT22;10808;48.010;11.326;2023-05-16T13:32:23;15.20;99.90
21298;DHT22;10808;48.010;11.326;2023-05-16T13:34:50;15.40;99.90
21298;DHT22;10808;48.010;11.326;2023-05-16T13:37:17;15.60;99.90
21298;DHT22;10808;48.010;11.326;2023-05-16T13:39:43;15.70;99.90
21298;DHT22;10808;48.010;11.326;2023-05-16T13:42:09;15.70;99.90
21298;DHT22;10808;48.010;11.326;2023-05-16T13:44:35;15.70;99.90
21298;DHT22;10808;48.010;11.326;2023-05-16T13:47:02;15.70;99.90
21298;DHT22;10808;48.010;11.326;2023-05-16T13:49:28;15.70;99.90
21298;DHT22;10808;48.010;11.326;2023-05-16T13:51:54;15.60;99.90
21298;DHT22;10808;48.010;11.326;2023-05-16T13:54:20;15.50;99.90
21298;DHT22;10808;48.010;11.326;2023-05-16T13:56:47;15.50;99.90
21298;DHT22;10808;48.010;11.326;2023-05-16T13:59:14;15.40;99.90
21298;DHT22;10808;48.010;11.326;2023-05-16T14:01:40;15.30;99.90
21298;DHT22;10808;48.010;11.326;2023-05-16T14:04:06;15.20;99.90
21298;DHT22;10808;48.010;11.326;2023-05-16T14:06:32;15.10;99.90
21298;DHT22;10808;48.010;11.326;2023-05-16T14:08:58;14.90;99.90
21298;DHT22;10808;48.010;11.326;2023-05-16T14:11:25;14.70;99.90
21298;DHT22;10808;48.010;11.326;2023-05-16T14:13:52;14.50;99.90
21298;DHT22;10808;48.010;11.326;2023-05-16T14:16:19;14.40;99.90
21298;DHT22;10808;48.010;11.326;2023-05-16T14:18:45;14.30;99.90
21298;DHT22;10808;48.010;11.326;2023-05-16T14:21:11;14.20;99.90
21298;DHT22;10808;48.010;11.326;2023-05-16T14:23:38;14.30;99.90
21298;DHT22;10808;48.010;11.326;2023-05-16T14:26:05;14.20;99.90
21298;DHT22;10808;48.010;11.326;2023-05-16T14:28:31;14.10;99.90
21298;DHT22;10808;48.010;11.326;2023-05-16T14:30:58;14.00;99.90
21298;DHT22;10808;48.010;11.326;2023-05-16T14:33:24;13.90;99.90
21298;DHT22;10808;48.010;11.326;2023-05-16T14:35:51;13.90;99.90
21298;DHT22;10808;48.010;11.326;2023-05-16T14:38:18;13.80;99.90
21298;DHT22;10808;48.010;11.326;2023-05-16T14:40:44;13.90;99.90
21298;DHT22;10808;48.010;11.326;2023-05-16T14:43:10;13.70;99.90
21298;DHT22;10808;48.010;11.326;2023-05-16T14:45:37;13.70;99.90
21298;DHT22;10808;48.010;11.326;2023-05-16T14:48:05;13.60;99.90
21298;DHT22;10808;48.010;11.326;2023-05-16T14:50:31;13.50;99.90
21298;DHT22;10808;48.010;11.326;2023-05-16T14:52:58;13.40;99.90
21298;DHT22;10808;48.010;11.326;2023-05-16T14:55:24;13.40;99.90
21298;DHT22;10808;48.010;11.326;2023-05-16T14:57:50;13.30;99.90
21298;DHT22;10808;48.010;11.326;2023-05-16T15:00:17;13.30;99.90
21298;DHT22;10808;48.010;11.326;2023-05-16T15:02:47;13.20;99.90
21298;DHT22;10808;48.010;11.326;2023-05-16T15:05:13;13.20;99.90
21298;DHT22;10808;48.010;11.326;2023-05-16T15:07:39;13.20;99.90
21298;DHT22;10808;48.010;11.326;2023-05-16T15:10:06;13.30;99.90
21298;DHT22;10808;48.010;11.326;2023-05-16T15:12:32;13.20;99.90
21298;DHT22;10808;48.010;11.326;2023-05-16T15:14:58;13.20;99.90
21298;DHT22;10808;48.010;11.326;2023-05-16T15:17:24;13.20;99.90
21298;DHT22;10808;48.010;11.326;2023-05-16T15:19:50;13.30;99.90
21298;DHT22;10808;48.010;11.326;2023-05-16T15:22:19;13.30;99.90